Time;durP1;ratioP1;P1;durP2;ratioP2;P2;SDS_P1;SDS_P2;PMS_P1;PMS_P2;Temp;Humidity;BMP_temperature;BMP_pressure;BME280_temperature;BME280_humidity;BME280_pressure;Samples;Min_cycle;Max_cycle;Signal;HPM_P1;HPM_P2
2022/03/15 00:00:51;;;;;;;22.10;17.83;;;10.60;99.90;;;;;;5074716;28;20438;-49
2022/03/15 00:03:20;;;;;;;22.50;18.90;;;10.50;99.90;;;;;;5074724;28;20434;-49
2022/03/15 00:05:46;;;;;;;26.60;20.40;;;10.60;99.90;;;;;;5074927;28;20858;-50
2022/03/15 00:08:13;;;;;;;22.00;18.20;;;10.60;99.90;;;;;;5074693;28;20441;-50
2022/03/15 00:10:40;;;;;;;25.13;18.70;;;10.70;99.90;;;;;;5074750;28;20456;-49
2022/03/15 00:13:07;;;;;;;25.50;19.43;;;10.50;99.90;;;;;;5074430;28;20476;-51
2022/03/15 00:15:35;;;;;;;23.83;19.30;;;11.00;99.90;;;;;;5074360;28;20436;-50
2022/03/15 00:18:03;;;;;;;24.77;18.60;;;10.80;99.90;;;;;;5074386;28;20438;-51
2022/03/15 00:20:31;;;;;;;24.50;18.33;;;11.00;99.90;;;;;;5074189;28;20433;-50
2022/03/15 00:22:59;;;;;;;25.10;20.00;;;10.40;99.90;;;;;;5074172;28;20453;-51
2022/03/15 00:25:26;;;;;;;26.13;18.90;;;10.00;99.90;;;;;;5074042;28;20433;-50
2022/03/15 00:27:53;;;;;;;22.53;18.20;;;10.50;99.90;;;;;;5074426;28;20429;-50
2022/03/15 00:30:21;;;;;;;28.53;23.67;;;10.50;99.90;;;;;;5073796;28;20798;-51
2022/03/15 00:32:49;;;;;;;31.43;20.20;;;10.60;99.90;;;;;;5055360;28;20502;-50
2022/03/15 00:35:18;;;;;;;24.07;20.00;;;10.40;99.90;;;;;;5073626;28;20464;-51
2022/03/15 00:37:51;;;;;;;25.00;18.60;;;10.10;99.90;;;;;;5073822;28;20452;-51
2022/03/15 00:40:19;;;;;;;29.03;19.10;;;10.40;99.90;;;;;;5073576;28;20437;-50
2022/03/15 00:42:49;;;;;;;25.73;18.23;;;10.20;99.90;;;;;;5073843;28;20461;-51
2022/03/15 00:45:23;;;;;;;27.40;18.40;;;10.00;99.90;;;;;;5073997;28;20418;-50
2022/03/15 00:47:50;;;;;;;24.47;18.23;;;10.10;99.90;;;;;;5055658;28;20445;-52
2022/03/15 00:50:17;;;;;;;25.97;19.70;;;10.70;99.90;;;;;;5073528;28;20433;-50
2022/03/15 00:52:44;;;;;;;23.40;18.93;;;10.30;99.90;;;;;;5055620;28;20457;-50
2022/03/15 00:55:12;;;;;;;24.00;18.83;;;9.70;99.90;;;;;;5073768;28;20445;-50
2022/03/15 00:57:39;;;;;;;44.13;19.87;;;10.10;99.90;;;;;;5073619;28;20429;-50
2022/03/15 01:00:08;;;;;;;23.77;19.37;;;10.30;99.90;;;;;;5055434;28;20450;-50
2022/03/15 01:02:34;;;;;;;26.97;19.10;;;10.20;99.90;;;;;;5073242;28;20847;-50
2022/03/15 01:05:01;;;;;;;21.67;19.33;;;10.30;99.90;;;;;;5055387;28;20450;-50
2022/03/15 01:07:28;;;;;;;27.70;19.80;;;10.10;99.90;;;;;;5055239;28;20512;-51
2022/03/15 01:09:54;;;;;;;25.93;17.77;;;10.50;99.90;;;;;;5073136;28;20434;-52
2022/03/15 01:12:23;;;;;;;22.53;17.37;;;10.70;99.90;;;;;;5073035;28;20469;-51
2022/03/15 01:14:49;;;;;;;22.30;17.17;;;10.30;99.90;;;;;;5073209;28;20972;-51
2022/03/15 01:17:16;;;;;;;22.13;18.07;;;10.00;99.90;;;;;;5055083;28;20511;-50
2022/03/15 01:19:44;;;;;;;23.07;17.77;;;10.30;99.90;;;;;;5055265;28;20858;-50
2022/03/15 01:22:11;;;;;;;25.43;18.67;;;10.30;99.90;;;;;;5054945;28;20473;-50
2022/03/15 01:24:37;;;;;;;26.40;18.50;;;10.30;99.90;;;;;;5055017;28;20453;-51
2022/03/15 01:27:04;;;;;;;29.37;19.73;;;10.10;99.90;;;;;;5072813;28;20484;-50
2022/03/15 01:29:34;;;;;;;27.10;17.70;;;9.60;99.90;;;;;;5054902;28;20442;-51
2022/03/15 01:32:01;;;;;;;28.73;18.87;;;10.10;99.90;;;;;;5054770;28;20473;-51
2022/03/15 01:34:28;;;;;;;23.50;18.73;;;9.50;99.90;;;;;;5054897;28;20480;-50
2022/03/15 01:36:58;;;;;;;29.40;18.50;;;10.30;99.90;;;;;;5072700;28;20430;-50
2022/03/15 01:39:25;;;;;;;29.90;21.60;;;10.80;99.90;;;;;;5072639;28;20525;-50
2022/03/15 01:41:52;;;;;;;29.17;20.10;;;9.80;99.90;;;;;;5072505;28;20477;-50
2022/03/15 01:44:21;;;;;;;27.23;20.23;;;9.80;99.90;;;;;;5054208;28;20541;-50
2022/03/15 01:46:51;;;;;;;24.10;17.80;;;10.40;99.90;;;;;;5072511;28;20544;-50
2022/03/15 01:49:22;;;;;;;25.40;18.47;;;10.20;99.90;;;;;;5072582;28;20438;-51
2022/03/15 01:51:50;;;;;;;21.70;17.23;;;10.30;99.90;;;;;;5072468;28;20503;-50
2022/03/15 01:54:17;;;;;;;26.47;20.27;;;9.90;99.90;;;;;;5072360;28;20426;-51
2022/03/15 01:56:44;;;;;;;21.33;18.30;;;10.00;99.90;;;;;;5054518;28;20445;-50
2022/03/15 01:59:14;;;;;;;27.00;20.77;;;10.50;99.90;;;;;;5054605;28;20856;-50
2022/03/15 02:01:42;;;;;;;25.77;21.17;;;9.90;99.90;;;;;;5054164;28;20478;-51
2022/03/15 02:04:10;;;;;;;31.63;21.20;;;10.10;99.90;;;;;;5072227;28;20918;-51
2022/03/15 02:06:37;;;;;;;25.93;19.30;;;10.10;99.90;;;;;;5072247;28;20470;-50
2022/03/15 02:09:10;;;;;;;31.50;20.60;;;10.00;99.90;;;;;;5072057;28;20429;-52
2022/03/15 02:11:37;;;;;;;26.60;19.07;;;9.90;99.90;;;;;;5071972;28;20517;-51
2022/03/15 02:14:04;;;;;;;30.10;18.70;;;9.90;99.90;;;;;;5072094;28;20438;-50
2022/03/15 02:16:33;;;;;;;27.40;19.60;;;10.10;99.90;;;;;;5072141;28;20453;-50
2022/03/15 02:19:00;;;;;;;29.37;21.03;;;10.20;99.90;;;;;;5071822;28;20433;-50
2022/03/15 02:21:29;;;;;;;28.80;20.50;;;10.10;99.90;;;;;;5072270;28;20450;-52
2022/03/15 02:23:56;;;;;;;25.73;19.97;;;10.00;99.90;;;;;;5071961;28;20433;-50
2022/03/15 02:26:22;;;;;;;29.13;18.63;;;10.10;99.90;;;;;;5071821;28;20846;-50
2022/03/15 02:28:49;;;;;;;24.13;18.30;;;10.70;99.90;;;;;;5071839;28;20430;-51
2022/03/15 02:31:16;;;;;;;28.13;19.77;;;9.80;99.90;;;;;;5071823;28;20457;-50
2022/03/15 02:33:43;;;;;;;27.13;18.20;;;10.50;99.90;;;;;;5072060;28;20445;-52
2022/03/15 02:36:11;;;;;;;26.70;18.70;;;10.30;99.90;;;;;;5072409;28;20472;-48
2022/03/15 02:38:39;;;;;;;27.07;19.73;;;9.30;99.90;;;;;;5071641;28;20437;-50
2022/03/15 02:41:06;;;;;;;25.53;18.80;;;10.20;99.90;;;;;;5071749;28;20434;-50
2022/03/15 02:43:32;;;;;;;30.00;19.57;;;10.00;99.90;;;;;;5071588;28;20445;-51
2022/03/15 02:46:00;;;;;;;28.10;19.27;;;9.90;99.90;;;;;;5071669;28;20434;-50
2022/03/15 02:48:27;;;;;;;26.63;20.10;;;9.90;99.90;;;;;;5071560;28;20433;-50
2022/03/15 02:50:58;;;;;;;24.67;18.17;;;9.90;99.90;;;;;;5071458;28;20437;-50
2022/03/15 02:53:25;;;;;;;26.43;19.27;;;10.00;99.90;;;;;;5071676;28;20422;-51
2022/03/15 02:55:54;;;;;;;25.40;19.17;;;10.20;99.90;;;;;;5071280;28;20458;-50
2022/03/15 02:58:21;;;;;;;27.10;18.90;;;10.20;99.90;;;;;;5071579;28;20430;-50
2022/03/15 03:00:47;;;;;;;27.60;20.10;;;9.90;99.90;;;;;;5071394;28;20471;-49
2022/03/15 03:03:14;;;;;;;26.70;19.73;;;10.40;99.90;;;;;;5071503;28;20453;-50
2022/03/15 03:05:41;;;;;;;28.43;19.93;;;9.90;99.90;;;;;;5071849;28;20437;-50
2022/03/15 03:08:08;;;;;;;28.87;20.00;;;10.10;99.90;;;;;;5071503;28;20474;-50
2022/03/15 03:10:35;;;;;;;24.90;19.00;;;10.10;99.90;;;;;;5053491;28;20500;-50
2022/03/15 03:13:04;;;;;;;27.13;18.70;;;10.20;99.90;;;;;;5071319;28;20476;-50
2022/03/15 03:15:32;;;;;;;28.77;19.20;;;10.00;99.90;;;;;;5071357;28;20465;-50
2022/03/15 03:17:58;;;;;;;28.50;19.30;;;9.90;99.90;;;;;;5071376;28;20425;-50
2022/03/15 03:20:27;;;;;;;27.20;19.10;;;10.30;99.90;;;;;;5071483;28;20809;-51
2022/03/15 03:22:54;;;;;;;28.47;19.73;;;9.80;99.90;;;;;;5071345;28;20463;-51
2022/03/15 03:25:21;;;;;;;30.37;18.80;;;10.10;99.90;;;;;;5071334;28;20433;-51
2022/03/15 03:27:47;;;;;;;28.10;20.07;;;10.20;99.90;;;;;;5071118;28;20477;-51
2022/03/15 03:30:16;;;;;;;27.63;18.53;;;9.70;99.90;;;;;;5071047;28;20434;-50
2022/03/15 03:32:43;;;;;;;28.13;18.57;;;9.30;99.90;;;;;;5071235;28;20503;-52
2022/03/15 03:35:10;;;;;;;29.00;18.97;;;9.60;99.90;;;;;;5071231;28;20433;-50
2022/03/15 03:37:36;;;;;;;33.07;19.40;;;9.90;99.90;;;;;;5071092;28;20434;-50
2022/03/15 03:40:07;;;;;;;34.10;21.50;;;9.80;99.90;;;;;;5070954;28;20804;-50
2022/03/15 03:42:35;;;;;;;33.33;22.37;;;9.70;99.90;;;;;;5071033;28;20473;-50
2022/03/15 03:45:01;;;;;;;39.00;24.60;;;9.20;99.90;;;;;;5071108;28;20551;-50
2022/03/15 03:47:30;;;;;;;37.03;24.80;;;9.60;99.90;;;;;;5071085;28;21008;-50
2022/03/15 03:49:56;;;;;;;39.47;23.87;;;9.90;99.90;;;;;;5071043;28;20434;-50
2022/03/15 03:52:26;;;;;;;32.67;24.13;;;10.10;99.90;;;;;;5071048;28;20465;-50
2022/03/15 03:54:52;;;;;;;35.03;24.97;;;9.80;99.90;;;;;;5070893;28;20440;-50
2022/03/15 03:57:19;;;;;;;35.60;23.73;;;10.10;99.90;;;;;;5070979;28;20477;-50
2022/03/15 03:59:46;;;;;;;35.83;23.53;;;9.60;99.90;;;;;;5070800;28;20521;-50
2022/03/15 04:02:12;;;;;;;30.37;20.70;;;9.00;99.90;;;;;;5070861;28;20458;-50
2022/03/15 04:04:40;;;;;;;37.13;22.90;;;9.30;99.90;;;;;;5070823;28;20434;-50
2022/03/15 04:07:11;;;;;;;37.70;24.67;;;9.40;99.90;;;;;;5070796;28;20481;-50
2022/03/15 04:09:38;;;;;;;35.60;23.60;;;9.00;99.90;;;;;;5074104;28;20849;-50
2022/03/15 04:12:05;;;;;;;32.03;23.67;;;9.20;99.90;;;;;;5074522;28;20476;-49
2022/03/15 04:14:32;;;;;;;33.47;23.83;;;9.40;99.90;;;;;;5074689;28;20465;-50
2022/03/15 04:16:59;;;;;;;32.40;23.17;;;9.50;99.90;;;;;;5074637;28;20496;-48
2022/03/15 04:19:25;;;;;;;32.60;22.77;;;9.40;99.90;;;;;;5074385;28;20430;-50
2022/03/15 04:21:53;;;;;;;33.83;23.57;;;9.50;99.90;;;;;;5074279;28;20991;-50
2022/03/15 04:24:20;;;;;;;36.90;24.20;;;9.40;99.90;;;;;;5074665;28;20456;-50
2022/03/15 04:26:47;;;;;;;31.47;23.43;;;9.90;99.90;;;;;;5074200;28;20446;-49
2022/03/15 04:29:14;;;;;;;34.00;22.30;;;9.30;99.90;;;;;;5073844;28;20434;-50
2022/03/15 04:31:41;;;;;;;46.17;33.00;;;9.30;99.90;;;;;;5073864;28;20460;-50
2022/03/15 04:34:07;;;;;;;34.67;25.13;;;9.20;99.90;;;;;;5074041;28;20430;-50
2022/03/15 04:36:36;;;;;;;31.63;24.60;;;9.60;99.90;;;;;;5073982;28;20476;-48
2022/03/15 04:39:04;;;;;;;32.30;24.40;;;8.70;99.90;;;;;;5073675;28;20472;-51
2022/03/15 04:41:30;;;;;;;38.13;24.93;;;9.10;99.90;;;;;;5073901;28;20481;-51
2022/03/15 04:43:57;;;;;;;32.73;25.80;;;9.40;99.90;;;;;;5073723;28;20449;-51
2022/03/15 04:46:24;;;;;;;33.13;24.47;;;9.20;99.90;;;;;;5074029;28;20525;-51
2022/03/15 04:48:53;;;;;;;41.80;26.53;;;9.10;99.90;;;;;;5073580;28;20477;-50
2022/03/15 04:51:20;;;;;;;35.67;25.27;;;8.90;99.90;;;;;;5073709;28;20541;-49
2022/03/15 04:53:47;;;;;;;35.57;24.47;;;9.00;99.90;;;;;;5073639;28;21008;-48
2022/03/15 04:56:16;;;;;;;35.70;24.77;;;9.00;99.90;;;;;;5073356;28;20444;-48
2022/03/15 04:58:42;;;;;;;33.37;23.10;;;9.00;99.90;;;;;;5073183;28;20432;-48
2022/03/15 05:01:09;;;;;;;30.83;22.03;;;9.10;99.90;;;;;;5073343;28;20434;-51
2022/03/15 05:03:35;;;;;;;33.47;22.60;;;9.20;99.90;;;;;;5073613;28;20437;-49
2022/03/15 05:06:02;;;;;;;31.57;22.97;;;9.20;99.90;;;;;;5073262;28;20433;-48
2022/03/15 05:08:29;;;;;;;35.37;24.40;;;9.30;99.90;;;;;;5073163;28;20473;-48
2022/03/15 05:11:06;;;;;;;37.47;25.53;;;8.70;99.90;;;;;;5073170;28;20811;-50
2022/03/15 05:13:35;;;;;;;33.20;25.20;;;9.30;99.90;;;;;;5073682;28;20445;-48
2022/03/15 05:16:02;;;;;;;33.97;25.10;;;8.60;99.90;;;;;;5073151;28;20404;-49
2022/03/15 05:18:29;;;;;;;35.80;23.80;;;9.30;99.90;;;;;;5072919;28;20430;-49
2022/03/15 05:20:56;;;;;;;34.30;23.53;;;9.00;99.90;;;;;;5072912;28;20442;-49
2022/03/15 05:23:22;;;;;;;32.33;25.10;;;9.00;99.90;;;;;;5073108;28;20879;-49
2022/03/15 05:25:49;;;;;;;35.60;25.23;;;8.30;99.90;;;;;;5072948;28;20430;-50
2022/03/15 05:28:16;;;;;;;33.60;24.40;;;8.80;99.90;;;;;;5072796;28;20483;-48
2022/03/15 05:30:44;;;;;;;36.43;25.87;;;8.80;99.90;;;;;;5072745;28;20487;-48
2022/03/15 05:33:10;;;;;;;34.40;25.97;;;8.80;99.90;;;;;;5072829;28;20453;-50
2022/03/15 05:35:41;;;;;;;33.73;26.37;;;8.60;99.90;;;;;;5073277;28;20414;-51
2022/03/15 05:38:09;;;;;;;39.10;25.77;;;8.50;99.90;;;;;;5073066;28;20440;-49
2022/03/15 05:40:35;;;;;;;36.53;26.20;;;8.50;99.90;;;;;;5072477;28;20429;-49
2022/03/15 05:43:02;;;;;;;38.43;27.63;;;8.60;99.90;;;;;;5065367;28;20462;-49
2022/03/15 05:45:29;;;;;;;41.73;26.77;;;8.80;99.90;;;;;;5052695;28;20792;-52
2022/03/15 05:47:57;;;;;;;38.67;26.53;;;8.70;99.90;;;;;;5052740;28;20471;-49
2022/03/15 05:50:24;;;;;;;40.50;26.13;;;9.10;99.90;;;;;;5052317;28;20456;-50
2022/03/15 05:52:51;;;;;;;38.50;26.00;;;8.20;99.90;;;;;;5052220;28;20446;-50
2022/03/15 05:55:18;;;;;;;43.57;27.37;;;8.90;99.90;;;;;;5052443;28;21033;-50
2022/03/15 05:57:45;;;;;;;37.93;27.07;;;9.20;99.90;;;;;;5052200;28;20442;-50
2022/03/15 06:00:12;;;;;;;42.10;26.13;;;8.80;99.90;;;;;;5052289;28;20434;-49
2022/03/15 06:02:42;;;;;;;43.27;27.73;;;8.80;99.90;;;;;;5052532;28;20442;-49
2022/03/15 06:05:12;;;;;;;45.07;29.00;;;8.40;99.90;;;;;;5052356;28;20446;-49
2022/03/15 06:07:45;;;;;;;40.00;26.47;;;8.90;99.90;;;;;;5052458;28;20485;-50
2022/03/15 06:10:12;;;;;;;37.73;25.77;;;9.00;99.90;;;;;;5051809;28;20411;-50
2022/03/15 06:12:40;;;;;;;38.80;27.90;;;8.90;99.90;;;;;;5051891;28;20978;-49
2022/03/15 06:15:07;;;;;;;44.37;26.40;;;9.10;99.90;;;;;;5052220;28;20836;-50
2022/03/15 06:17:43;;;;;;;38.13;27.43;;;9.00;99.90;;;;;;5051609;28;20431;-50
2022/03/15 06:20:14;;;;;;;37.60;26.53;;;8.90;99.90;;;;;;5051338;28;20426;-51
2022/03/15 06:22:41;;;;;;;41.90;28.23;;;9.00;99.90;;;;;;5051549;28;20485;-51
2022/03/15 06:25:08;;;;;;;39.83;28.77;;;9.20;99.90;;;;;;5051624;28;20439;-50
2022/03/15 06:27:35;;;;;;;34.47;25.33;;;9.00;99.90;;;;;;5051463;28;20466;-50
2022/03/15 06:30:04;;;;;;;38.53;28.00;;;9.50;99.90;;;;;;5051152;28;20431;-50
2022/03/15 06:32:31;;;;;;;36.43;26.53;;;9.20;99.90;;;;;;5050687;28;20462;-52
2022/03/15 06:34:58;;;;;;;34.73;25.73;;;9.00;99.90;;;;;;5051123;28;20441;-51
2022/03/15 06:37:26;;;;;;;40.33;26.83;;;9.50;99.90;;;;;;5051305;28;20434;-51
2022/03/15 06:39:54;;;;;;;36.13;24.50;;;9.30;99.90;;;;;;5050425;28;20973;-52
2022/03/15 06:42:21;;;;;;;32.10;24.93;;;9.10;99.90;;;;;;5052801;28;20446;-51
2022/03/15 06:44:48;;;;;;;36.03;24.63;;;9.50;99.90;;;;;;5070937;28;20464;-50
2022/03/15 06:47:14;;;;;;;33.40;24.77;;;9.90;99.90;;;;;;5070316;28;20846;-50
2022/03/15 06:49:41;;;;;;;34.53;25.37;;;9.10;99.90;;;;;;5071360;28;20442;-49
2022/03/15 06:52:08;;;;;;;34.80;26.70;;;9.30;99.90;;;;;;5070736;28;20472;-50
2022/03/15 06:54:36;;;;;;;36.40;26.27;;;9.40;99.90;;;;;;5071438;28;21006;-50
2022/03/15 06:57:03;;;;;;;31.87;24.77;;;8.90;99.90;;;;;;5070473;28;20434;-50
2022/03/15 06:59:30;;;;;;;34.23;25.33;;;9.40;99.90;;;;;;5071111;28;20430;-51
2022/03/15 07:01:59;;;;;;;38.27;24.77;;;9.60;99.90;;;;;;5071060;28;20449;-50
2022/03/15 07:04:26;;;;;;;32.57;25.27;;;9.30;99.90;;;;;;5071485;28;20441;-50
2022/03/15 07:06:52;;;;;;;33.07;23.90;;;10.10;99.90;;;;;;5071261;28;20477;-49
2022/03/15 07:09:19;;;;;;;43.67;32.83;;;9.80;99.90;;;;;;5071024;28;20488;-50
2022/03/15 07:11:47;;;;;;;34.23;25.10;;;9.40;99.90;;;;;;5070942;28;20813;-50
2022/03/15 07:14:13;;;;;;;33.70;27.20;;;10.00;99.90;;;;;;5071737;28;20437;-49
2022/03/15 07:16:40;;;;;;;37.20;25.17;;;10.10;99.90;;;;;;5071016;28;20434;-51
2022/03/15 07:19:07;;;;;;;33.30;24.40;;;9.10;99.90;;;;;;5070840;28;20939;-50
2022/03/15 07:21:33;;;;;;;35.70;25.83;;;9.50;99.90;;;;;;5071077;28;20445;-50
2022/03/15 07:24:00;;;;;;;37.23;27.00;;;9.50;99.90;;;;;;5070925;28;20437;-52
2022/03/15 07:26:27;;;;;;;34.00;25.27;;;9.70;99.90;;;;;;5070718;28;20790;-50
2022/03/15 07:28:54;;;;;;;31.83;23.47;;;9.60;99.90;;;;;;5070081;28;20474;-50
2022/03/15 07:31:21;;;;;;;36.03;25.67;;;10.20;99.90;;;;;;5070884;28;20540;-50
2022/03/15 07:33:48;;;;;;;36.03;27.47;;;9.90;99.90;;;;;;5070460;28;20448;-50
2022/03/15 07:36:14;;;;;;;36.63;26.40;;;10.20;99.90;;;;;;5052947;28;20524;-51
2022/03/15 07:38:41;;;;;;;37.40;25.80;;;9.90;99.90;;;;;;5070599;28;20859;-52
2022/03/15 07:41:08;;;;;;;39.83;25.13;;;9.70;99.90;;;;;;5070846;28;20815;-51
2022/03/15 07:43:34;;;;;;;38.80;27.33;;;9.80;99.90;;;;;;5072717;28;20572;-49
2022/03/15 07:46:02;;;;;;;39.50;27.10;;;10.30;99.90;;;;;;5074851;28;20434;-50
2022/03/15 07:48:29;;;;;;;38.27;26.80;;;9.40;99.90;;;;;;5074519;28;20469;-51
2022/03/15 07:50:57;;;;;;;37.10;27.10;;;10.00;99.90;;;;;;5074466;28;20441;-50
2022/03/15 07:53:26;;;;;;;38.10;28.70;;;10.50;99.90;;;;;;5074268;28;20507;-50
2022/03/15 07:55:53;;;;;;;38.27;27.30;;;9.60;99.90;;;;;;5074370;28;20437;-50
2022/03/15 07:58:19;;;;;;;39.00;26.67;;;10.40;99.90;;;;;;5074179;28;20434;-49
2022/03/15 08:00:48;;;;;;;37.67;26.63;;;9.60;99.90;;;;;;5074345;28;20440;-50
2022/03/15 08:03:16;;;;;;;41.97;27.20;;;10.10;99.90;;;;;;5056174;28;20472;-49
2022/03/15 08:05:43;;;;;;;37.30;27.73;;;10.10;99.90;;;;;;5073808;28;20430;-49
2022/03/15 08:08:10;;;;;;;37.53;28.87;;;10.40;99.90;;;;;;5074159;28;20872;-49
2022/03/15 08:10:37;;;;;;;42.67;29.07;;;10.50;99.90;;;;;;5074115;28;20441;-50
2022/03/15 08:13:03;;;;;;;38.90;27.03;;;10.30;99.90;;;;;;5073735;28;20534;-49
2022/03/15 08:15:30;;;;;;;41.93;31.70;;;10.40;99.90;;;;;;5073843;28;20520;-50
2022/03/15 08:18:00;;;;;;;43.47;29.53;;;10.10;99.90;;;;;;5073872;28;20442;-50
2022/03/15 08:20:32;;;;;;;36.43;26.90;;;10.40;99.90;;;;;;5074323;28;20934;-49
2022/03/15 08:22:59;;;;;;;40.07;27.43;;;10.40;99.90;;;;;;5074232;28;20454;-49
2022/03/15 08:25:26;;;;;;;40.70;27.00;;;10.40;99.90;;;;;;5073711;28;20438;-51
2022/03/15 08:27:53;;;;;;;38.10;27.63;;;10.40;99.90;;;;;;5073397;28;20437;-51
2022/03/15 08:30:20;;;;;;;43.67;29.77;;;10.90;99.90;;;;;;5074000;28;20795;-50
2022/03/15 08:32:47;;;;;;;37.13;28.17;;;10.80;99.90;;;;;;5074204;28;20480;-50
2022/03/15 08:35:14;;;;;;;37.30;27.70;;;10.70;99.90;;;;;;5074054;28;20436;-50
2022/03/15 08:37:43;;;;;;;41.73;28.90;;;10.80;99.90;;;;;;5071775;28;20454;-51
2022/03/15 08:40:11;;;;;;;41.23;28.30;;;10.80;99.90;;;;;;5073432;28;20465;-49
2022/03/15 08:42:37;;;;;;;40.10;28.30;;;10.90;99.90;;;;;;5073644;28;20458;-50
2022/03/15 08:45:06;;;;;;;45.13;29.50;;;10.60;99.90;;;;;;5073555;28;20437;-50
2022/03/15 08:47:33;;;;;;;46.33;29.43;;;10.70;99.90;;;;;;5073405;28;20438;-50
2022/03/15 08:49:59;;;;;;;52.13;30.40;;;11.20;99.90;;;;;;5073124;28;20470;-50
2022/03/15 08:52:26;;;;;;;41.10;29.90;;;10.80;99.90;;;;;;5073390;28;20453;-51
2022/03/15 08:54:54;;;;;;;46.70;32.20;;;11.10;99.90;;;;;;5073056;28;20503;-50
2022/03/15 08:57:22;;;;;;;43.10;29.07;;;10.80;99.90;;;;;;5072909;28;20479;-50
2022/03/15 08:59:48;;;;;;;39.23;28.50;;;11.10;99.90;;;;;;5073312;28;20561;-50
2022/03/15 09:02:17;;;;;;;39.00;28.67;;;11.00;99.90;;;;;;5073614;28;20450;-51
2022/03/15 09:04:44;;;;;;;42.57;28.20;;;11.40;99.90;;;;;;5073363;28;20968;-50
2022/03/15 09:07:11;;;;;;;42.97;27.67;;;11.10;99.90;;;;;;5072885;28;20430;-50
2022/03/15 09:09:37;;;;;;;38.37;26.70;;;11.30;99.90;;;;;;5054566;28;20482;-50
2022/03/15 09:12:06;;;;;;;36.20;27.77;;;11.30;99.90;;;;;;5072814;28;20850;-49
2022/03/15 09:14:33;;;;;;;36.07;26.93;;;11.20;99.90;;;;;;5072960;28;20437;-51
2022/03/15 09:17:00;;;;;;;41.07;26.23;;;11.20;99.90;;;;;;5072967;28;20817;-51
2022/03/15 09:19:27;;;;;;;40.53;25.40;;;11.20;99.90;;;;;;5072711;28;20446;-52
2022/03/15 09:21:53;;;;;;;36.13;25.90;;;11.60;99.90;;;;;;5072863;28;20452;-51
2022/03/15 09:24:20;;;;;;;36.50;25.93;;;11.40;99.90;;;;;;5072806;28;20452;-49
2022/03/15 09:26:47;;;;;;;37.03;27.40;;;11.70;99.90;;;;;;5072783;28;20422;-50
2022/03/15 09:29:15;;;;;;;40.73;27.73;;;11.50;99.90;;;;;;5072468;28;20477;-50
2022/03/15 09:31:41;;;;;;;33.20;23.87;;;11.40;99.90;;;;;;5072157;28;20469;-51
2022/03/15 09:34:08;;;;;;;34.27;25.67;;;11.60;99.90;;;;;;5072505;28;20433;-49
2022/03/15 09:36:35;;;;;;;37.60;25.07;;;11.70;99.90;;;;;;5072562;28;20457;-50
2022/03/15 09:39:02;;;;;;;35.87;25.57;;;11.80;99.90;;;;;;5072147;28;20463;-50
2022/03/15 09:41:29;;;;;;;34.33;24.83;;;11.90;99.90;;;;;;5072187;28;20464;-50
2022/03/15 09:43:59;;;;;;;32.77;23.80;;;11.80;99.90;;;;;;5072484;28;20441;-50
2022/03/15 09:46:30;;;;;;;33.03;25.03;;;12.40;99.90;;;;;;5072061;28;20896;-50
2022/03/15 09:48:58;;;;;;;38.83;24.77;;;11.80;99.90;;;;;;5071839;28;20986;-50
2022/03/15 09:51:27;;;;;;;39.53;24.63;;;12.10;99.90;;;;;;5072153;28;20450;-49
2022/03/15 09:53:57;;;;;;;34.23;24.07;;;11.90;99.90;;;;;;5072439;28;20919;-50
2022/03/15 09:56:24;;;;;;;35.40;23.13;;;12.10;99.90;;;;;;5070654;28;20505;-51
2022/03/15 09:58:51;;;;;;;35.20;24.00;;;11.60;99.90;;;;;;5071693;28;20438;-50
2022/03/15 10:01:19;;;;;;;33.60;23.90;;;12.50;99.90;;;;;;5071938;28;20884;-51
2022/03/15 10:03:47;;;;;;;28.33;21.10;;;12.20;99.90;;;;;;5072222;28;20435;-50
2022/03/15 10:06:14;;;;;;;37.37;21.80;;;12.40;99.90;;;;;;5071396;28;20431;-50
2022/03/15 10:08:41;;;;;;;27.70;20.43;;;12.40;99.90;;;;;;5071989;28;21125;-50
2022/03/15 10:11:08;;;;;;;28.67;20.43;;;12.60;99.90;;;;;;5071782;28;20529;-50
2022/03/15 10:13:34;;;;;;;31.87;20.20;;;12.90;99.90;;;;;;5071840;28;20449;-50
2022/03/15 10:16:03;;;;;;;28.00;19.43;;;12.60;99.90;;;;;;5071570;28;20777;-50
2022/03/15 10:18:31;;;;;;;32.67;19.17;;;12.70;99.90;;;;;;5071853;28;20519;-52
2022/03/15 10:20:59;;;;;;;31.90;19.10;;;13.10;99.90;;;;;;5071547;28;20441;-51
2022/03/15 10:23:29;;;;;;;28.50;18.73;;;12.90;99.90;;;;;;5072260;28;20441;-50
2022/03/15 10:25:58;;;;;;;30.37;20.10;;;12.90;99.90;;;;;;5071539;28;20429;-51
2022/03/15 10:28:25;;;;;;;29.10;19.40;;;13.40;99.90;;;;;;5071507;28;20485;-51
2022/03/15 10:30:53;;;;;;;30.77;19.17;;;12.90;99.90;;;;;;5071995;28;20782;-51
2022/03/15 10:33:20;;;;;;;27.50;18.10;;;13.10;99.90;;;;;;5071620;28;20488;-51
2022/03/15 10:35:49;;;;;;;27.53;16.77;;;13.50;99.90;;;;;;5071552;28;20436;-51
2022/03/15 10:38:18;;;;;;;28.30;19.80;;;13.80;99.90;;;;;;5071740;28;20429;-51
2022/03/15 10:40:47;;;;;;;29.23;19.90;;;13.30;99.90;;;;;;5071694;28;20519;-50
2022/03/15 10:43:18;;;;;;;23.97;17.63;;;13.00;99.90;;;;;;5071691;28;20458;-51
2022/03/15 10:45:46;;;;;;;21.60;14.67;;;13.80;99.90;;;;;;5071844;28;20479;-49
2022/03/15 10:48:16;;;;;;;19.23;15.90;;;13.80;99.90;;;;;;5053460;28;20440;-50
2022/03/15 10:50:54;;;;;;;20.37;15.43;;;13.90;99.90;;;;;;5071249;28;20943;-50
2022/03/15 10:53:24;;;;;;;26.83;15.93;;;13.80;99.90;;;;;;5071427;28;20429;-50
2022/03/15 10:55:51;;;;;;;27.73;18.70;;;13.40;99.90;;;;;;5071340;28;20515;-50
2022/03/15 10:58:23;;;;;;;27.77;17.43;;;14.10;99.90;;;;;;5070872;28;20433;-50
2022/03/15 11:00:54;;;;;;;25.07;18.20;;;14.10;99.90;;;;;;5071242;28;20911;-50
2022/03/15 11:03:25;;;;;;;24.97;16.67;;;14.10;99.90;;;;;;5071203;28;20520;-50
2022/03/15 11:05:57;;;;;;;24.37;18.17;;;14.10;99.90;;;;;;5071361;28;20424;-50
2022/03/15 11:08:25;;;;;;;23.90;15.60;;;14.10;99.90;;;;;;5071118;28;20482;-50
2022/03/15 11:10:53;;;;;;;21.07;16.20;;;14.10;99.90;;;;;;5070982;28;20484;-50
2022/03/15 11:13:19;;;;;;;27.53;16.67;;;14.40;99.90;;;;;;5071923;28;20532;-50
2022/03/15 11:15:48;;;;;;;23.73;16.10;;;14.30;99.90;;;;;;5071368;28;20451;-50
2022/03/15 11:18:17;;;;;;;20.93;14.63;;;14.20;99.10;;;;;;5074098;28;20439;-50
2022/03/15 11:20:47;;;;;;;24.50;15.43;;;14.10;98.60;;;;;;5075139;28;20899;-50
2022/03/15 11:23:16;;;;;;;21.73;15.60;;;14.70;98.80;;;;;;5074730;28;20452;-50
2022/03/15 11:25:48;;;;;;;21.03;16.80;;;14.30;98.30;;;;;;5074559;28;20434;-50
2022/03/15 11:28:17;;;;;;;21.60;16.00;;;14.90;98.60;;;;;;5074065;28;20429;-50
2022/03/15 11:30:43;;;;;;;21.63;16.10;;;14.50;98.30;;;;;;5074709;28;20480;-50
2022/03/15 11:33:11;;;;;;;26.13;16.50;;;14.10;97.70;;;;;;5074136;28;20453;-50
2022/03/15 11:35:40;;;;;;;22.57;16.10;;;14.40;98.20;;;;;;5074511;28;20434;-50
2022/03/15 11:38:09;;;;;;;26.30;15.47;;;14.80;98.30;;;;;;5074783;28;20447;-50
2022/03/15 11:40:38;;;;;;;25.60;17.37;;;15.10;98.20;;;;;;5074439;28;20417;-51
2022/03/15 11:43:17;;;;;;;19.33;15.90;;;14.90;98.00;;;;;;5074402;28;20453;-50
2022/03/15 11:45:48;;;;;;;19.87;15.27;;;14.80;97.80;;;;;;5074259;28;20453;-51
2022/03/15 11:48:23;;;;;;;25.20;17.10;;;14.40;97.00;;;;;;5074506;28;20430;-50
2022/03/15 11:50:59;;;;;;;20.80;15.97;;;14.40;97.30;;;;;;5074517;28;20473;-49
2022/03/15 11:53:40;;;;;;;24.50;15.07;;;14.50;97.00;;;;;;5074678;28;20418;-49
2022/03/15 11:56:15;;;;;;;20.60;14.70;;;14.70;96.80;;;;;;5074322;28;20987;-49
2022/03/15 11:58:53;;;;;;;25.10;14.60;;;14.80;96.20;;;;;;5074006;28;20444;-50
2022/03/15 12:01:21;;;;;;;20.60;13.87;;;14.80;95.30;;;;;;5074386;28;20532;-49
2022/03/15 12:03:48;;;;;;;19.10;13.33;;;14.70;95.80;;;;;;5074139;28;20408;-50
2022/03/15 12:06:20;;;;;;;19.33;13.83;;;15.10;95.90;;;;;;5073496;28;20469;-50
2022/03/15 12:08:57;;;;;;;18.43;13.00;;;14.60;95.20;;;;;;5073589;28;20472;-50
2022/03/15 12:11:36;;;;;;;18.53;13.73;;;15.20;95.30;;;;;;5073690;28;20471;-50
2022/03/15 12:14:08;;;;;;;21.47;14.30;;;14.90;94.60;;;;;;5073805;28;20421;-50
2022/03/15 12:16:37;;;;;;;19.90;14.83;;;15.30;94.90;;;;;;5073685;28;21077;-50
2022/03/15 12:19:13;;;;;;;23.43;16.27;;;15.20;95.00;;;;;;5073637;28;20453;-50
2022/03/15 12:21:53;;;;;;;23.97;17.03;;;15.30;95.10;;;;;;5073813;28;20897;-49
2022/03/15 12:24:28;;;;;;;27.37;18.77;;;15.20;95.00;;;;;;5073850;28;20418;-50
2022/03/15 12:27:00;;;;;;;22.73;17.63;;;15.30;95.30;;;;;;5072192;28;21159;-49
2022/03/15 12:29:29;;;;;;;27.03;16.97;;;15.30;95.30;;;;;;5072564;28;20479;-49
2022/03/15 12:31:57;;;;;;;22.60;17.30;;;15.70;95.40;;;;;;5072370;28;20535;-51
2022/03/15 12:34:27;;;;;;;23.63;17.30;;;15.40;94.90;;;;;;5072277;28;20430;-50